Time;durP1;ratioP1;P1;durP2;ratioP2;P2;SDS_P1;SDS_P2;PMS_P1;PMS_P2;Temp;Humidity;BMP_temperature;BMP_pressure;BME280_temperature;BME280_humidity;BME280_pressure;Samples;Min_cycle;Max_cycle;Signal;HPM_P1;HPM_P2
2020/12/23 00:01:19;;;;;;;5.70;5.10;;;11.10;86.20;;;;;;5006652;28;20061;-75
2020/12/23 00:03:45;;;;;;;5.90;4.93;;;11.10;86.20;;;;;;4990290;28;20401;-75
2020/12/23 00:06:11;;;;;;;4.95;4.55;;;11.10;86.10;;;;;;5006253;28;20330;-75
2020/12/23 00:08:37;;;;;;;4.35;3.97;;;11.10;86.20;;;;;;5006105;28;20589;-77
2020/12/23 00:11:03;;;;;;;5.97;4.57;;;11.00;86.00;;;;;;5005661;28;20034;-76
2020/12/23 00:13:30;;;;;;;6.65;4.35;;;11.00;86.10;;;;;;5006338;28;20073;-75
2020/12/23 00:15:56;;;;;;;7.38;5.15;;;11.00;86.10;;;;;;5005680;28;20034;-75
2020/12/23 00:18:22;;;;;;;6.82;4.68;;;10.90;86.00;;;;;;5006274;28;20033;-76
2020/12/23 00:20:48;;;;;;;5.32;4.82;;;11.00;86.20;;;;;;5007219;28;20041;-76
2020/12/23 00:23:14;;;;;;;6.53;4.50;;;10.90;86.00;;;;;;5007143;28;20034;-76
2020/12/23 00:25:40;;;;;;;6.78;5.03;;;10.90;86.00;;;;;;5007307;28;20113;-76
2020/12/23 00:28:06;;;;;;;5.30;4.72;;;10.90;86.10;;;;;;5007299;28;20039;-76
2020/12/23 00:30:32;;;;;;;6.15;4.97;;;10.90;86.10;;;;;;5005381;28;20056;-76
2020/12/23 00:32:58;;;;;;;5.28;4.78;;;10.80;86.00;;;;;;5007154;28;20033;-75
2020/12/23 00:35:24;;;;;;;5.20;4.70;;;10.80;86.00;;;;;;5007142;28;20442;-75
2020/12/23 00:37:51;;;;;;;4.90;4.40;;;10.80;86.00;;;;;;5005531;28;20461;-75
2020/12/23 00:40:17;;;;;;;5.05;4.55;;;10.80;86.00;;;;;;5006703;28;20544;-76
2020/12/23 00:42:43;;;;;;;4.72;4.28;;;10.80;86.10;;;;;;5006828;28;20034;-75
2020/12/23 00:45:08;;;;;;;5.40;4.60;;;10.80;86.10;;;;;;5005043;28;20124;-76
2020/12/23 00:47:35;;;;;;;4.80;4.40;;;10.80;86.10;;;;;;5005369;28;20061;-77
2020/12/23 00:50:01;;;;;;;5.10;4.60;;;10.80;86.20;;;;;;5005757;28;20058;-77
2020/12/23 00:52:28;;;;;;;6.65;4.35;;;10.80;86.20;;;;;;5006367;28;20114;-78
2020/12/23 00:54:54;;;;;;;5.10;4.60;;;10.80;86.20;;;;;;5006409;28;20113;-77
2020/12/23 00:57:26;;;;;;;4.93;4.47;;;10.80;86.20;;;;;;5004432;28;20397;-77
2020/12/23 00:59:52;;;;;;;4.40;4.00;;;10.80;86.20;;;;;;5004578;28;20500;-77
2020/12/23 01:02:18;;;;;;;7.50;4.88;;;10.80;86.20;;;;;;5007433;28;20302;-77
2020/12/23 01:04:44;;;;;;;4.43;4.03;;;10.90;86.40;;;;;;5007361;28;20041;-77
2020/12/23 01:07:10;;;;;;;6.35;4.93;;;10.90;86.40;;;;;;5006724;28;20137;-77
2020/12/23 01:09:36;;;;;;;5.15;4.10;;;10.80;86.20;;;;;;5006307;28;20026;-77
2020/12/23 01:12:02;;;;;;;6.25;4.03;;;10.80;86.20;;;;;;5007127;28;20092;-78
2020/12/23 01:14:29;;;;;;;4.50;4.10;;;10.90;86.40;;;;;;4989015;28;20393;-76
2020/12/23 01:16:54;;;;;;;4.63;4.22;;;10.90;86.40;;;;;;5005706;28;20058;-76
2020/12/23 01:19:20;;;;;;;4.75;4.00;;;10.90;86.40;;;;;;5006820;28;20061;-77
2020/12/23 01:21:46;;;;;;;4.07;3.67;;;10.90;86.40;;;;;;5006743;28;20070;-77
2020/12/23 01:24:12;;;;;;;4.07;3.67;;;10.90;86.40;;;;;;5003535;28;20088;-77
2020/12/23 01:26:38;;;;;;;7.78;3.72;;;10.90;86.30;;;;;;4995217;28;20438;-76
2020/12/23 01:29:04;;;;;;;5.82;3.85;;;10.90;86.30;;;;;;5009726;28;20561;-76
2020/12/23 01:31:30;;;;;;;4.63;4.20;;;10.90;86.40;;;;;;5004944;28;20030;-76
2020/12/23 01:33:56;;;;;;;4.55;4.15;;;10.90;86.30;;;;;;5004876;28;20053;-76
2020/12/23 01:36:22;;;;;;;4.32;3.53;;;11.00;86.50;;;;;;5006094;28;20465;-76
2020/12/23 01:38:48;;;;;;;6.68;3.80;;;11.00;86.50;;;;;;5006104;28;20029;-76
2020/12/23 01:41:14;;;;;;;6.45;4.63;;;11.00;86.50;;;;;;5006286;28;20038;-76
2020/12/23 01:43:41;;;;;;;5.30;3.80;;;11.00;86.50;;;;;;5006305;28;20470;-76
2020/12/23 01:46:07;;;;;;;4.50;3.60;;;11.00;86.50;;;;;;5006244;28;20340;-76
2020/12/23 01:48:37;;;;;;;3.97;3.67;;;11.00;86.50;;;;;;5006112;28;20116;-76
2020/12/23 01:51:03;;;;;;;4.30;3.90;;;11.00;86.50;;;;;;5006536;28;20121;-77
2020/12/23 01:53:29;;;;;;;4.20;3.53;;;11.00;86.50;;;;;;5006378;28;20034;-76
2020/12/23 01:55:58;;;;;;;4.00;3.55;;;11.00;86.50;;;;;;5004577;28;20120;-76
2020/12/23 01:58:24;;;;;;;4.10;3.75;;;11.00;86.40;;;;;;5005356;28;20041;-75
2020/12/23 02:00:50;;;;;;;3.97;3.58;;;11.00;86.40;;;;;;5004111;28;20109;-75
2020/12/23 02:03:20;;;;;;;3.97;3.45;;;11.10;86.60;;;;;;5007041;28;20096;-75
2020/12/23 02:05:46;;;;;;;4.78;3.75;;;11.10;86.50;;;;;;5006552;28;20048;-76
2020/12/23 02:08:12;;;;;;;4.32;3.78;;;11.10;86.50;;;;;;5004263;28;20029;-75
2020/12/23 02:10:39;;;;;;;5.95;3.75;;;11.10;86.50;;;;;;5004794;28;20034;-75
2020/12/23 02:13:05;;;;;;;4.82;3.58;;;11.10;86.50;;;;;;5008046;28;20025;-76
2020/12/23 02:15:31;;;;;;;4.38;3.40;;;11.10;86.50;;;;;;5008085;28;20053;-76
2020/12/23 02:17:57;;;;;;;3.60;3.30;;;11.10;86.50;;;;;;5008527;28;20036;-76
2020/12/23 02:20:23;;;;;;;3.80;3.40;;;11.10;86.50;;;;;;5009437;28;20038;-76
2020/12/23 02:22:49;;;;;;;3.58;3.28;;;11.10;86.50;;;;;;5009316;28;20038;-76
2020/12/23 02:25:15;;;;;;;3.95;3.55;;;11.10;86.50;;;;;;5009402;28;20033;-76
2020/12/23 02:27:42;;;;;;;4.40;3.38;;;11.10;86.50;;;;;;5009818;28;20460;-76
2020/12/23 02:30:09;;;;;;;3.35;3.05;;;11.10;86.50;;;;;;5009029;28;20038;-76
2020/12/23 02:32:36;;;;;;;5.20;3.58;;;11.10;86.50;;;;;;5009764;28;20057;-75
2020/12/23 02:35:04;;;;;;;4.15;3.20;;;11.10;86.50;;;;;;5009305;28;20030;-76
2020/12/23 02:37:30;;;;;;;3.65;3.35;;;11.10;86.50;;;;;;5009202;28;20134;-76
2020/12/23 02:39:56;;;;;;;4.40;3.33;;;11.10;86.50;;;;;;5008441;28;20113;-76
2020/12/23 02:42:24;;;;;;;3.28;2.97;;;11.10;86.50;;;;;;5009565;28;20033;-75
2020/12/23 02:44:50;;;;;;;3.75;3.40;;;11.10;86.40;;;;;;5007807;28;20103;-76
2020/12/23 02:47:17;;;;;;;3.67;3.35;;;11.10;86.40;;;;;;5002062;28;20841;-76
2020/12/23 02:49:44;;;;;;;3.35;3.05;;;11.10;86.40;;;;;;4998355;28;20042;-75
2020/12/23 02:52:11;;;;;;;3.20;2.90;;;11.10;86.40;;;;;;5007483;28;20529;-74
2020/12/23 02:54:37;;;;;;;2.95;2.58;;;11.10;86.50;;;;;;5007258;28;20030;-76
2020/12/23 02:57:04;;;;;;;9.32;3.55;;;11.10;86.50;;;;;;4992912;28;20081;-76
2020/12/23 02:59:31;;;;;;;3.10;2.78;;;11.10;86.50;;;;;;5006998;28;20042;-76
2020/12/23 03:01:57;;;;;;;3.55;2.75;;;11.10;86.50;;;;;;5007069;28;20123;-76
2020/12/23 03:04:23;;;;;;;3.45;2.70;;;11.00;86.20;;;;;;4992787;28;20484;-75
2020/12/23 03:06:49;;;;;;;5.78;3.28;;;11.10;86.50;;;;;;4991793;28;20031;-76
2020/12/23 03:09:15;;;;;;;4.88;3.00;;;11.10;86.40;;;;;;4992156;28;20125;-76
2020/12/23 03:11:41;;;;;;;3.33;3.00;;;11.00;86.30;;;;;;4992641;28;20091;-75
2020/12/23 03:14:08;;;;;;;2.97;2.55;;;11.00;86.40;;;;;;4992495;28;20075;-76
2020/12/23 03:16:34;;;;;;;3.63;2.40;;;11.00;86.30;;;;;;5006844;28;20034;-77
2020/12/23 03:19:00;;;;;;;3.75;2.90;;;11.00;86.30;;;;;;4992298;28;20034;-75
2020/12/23 03:21:26;;;;;;;2.40;2.20;;;11.00;86.30;;;;;;4991806;28;20042;-76
2020/12/23 03:23:52;;;;;;;2.55;2.35;;;11.00;86.40;;;;;;4991825;28;20030;-75
2020/12/23 03:26:18;;;;;;;2.78;2.42;;;11.00;86.40;;;;;;4991683;28;20457;-75
2020/12/23 03:28:44;;;;;;;3.22;2.78;;;11.00;86.30;;;;;;4992313;28;20486;-75
2020/12/23 03:31:10;;;;;;;5.72;2.75;;;11.00;86.30;;;;;;4991712;28;20085;-76
2020/12/23 03:33:37;;;;;;;4.50;2.83;;;11.00;86.40;;;;;;4992066;28;20060;-75
2020/12/23 03:36:03;;;;;;;3.53;2.88;;;11.00;86.40;;;;;;5006233;28;20058;-75
2020/12/23 03:38:30;;;;;;;2.97;2.53;;;11.00;86.40;;;;;;4991685;28;20176;-75
2020/12/23 03:40:56;;;;;;;4.32;2.70;;;11.00;86.40;;;;;;5006842;28;20443;-75
2020/12/23 03:43:23;;;;;;;4.05;2.70;;;11.00;86.40;;;;;;4991665;28;20026;-76
2020/12/23 03:45:49;;;;;;;4.05;2.63;;;11.00;86.40;;;;;;5006632;28;20455;-76
2020/12/23 03:48:16;;;;;;;2.65;2.45;;;11.00;86.40;;;;;;5006033;28;20085;-75
2020/12/23 03:50:42;;;;;;;2.78;2.47;;;11.00;86.40;;;;;;4991524;28;20035;-75
2020/12/23 03:53:09;;;;;;;3.20;2.65;;;11.00;86.40;;;;;;5006602;28;20038;-76
2020/12/23 03:55:35;;;;;;;5.20;2.78;;;11.10;86.60;;;;;;5006154;28;20034;-76
2020/12/23 03:58:01;;;;;;;3.75;2.47;;;11.10;86.60;;;;;;5006294;28;20121;-75
2020/12/23 04:00:27;;;;;;;4.97;2.92;;;11.10;86.60;;;;;;5005938;28;20041;-76
2020/12/23 04:02:53;;;;;;;3.20;2.17;;;11.10;87.10;;;;;;4989828;28;20031;-76
2020/12/23 04:05:19;;;;;;;2.67;2.42;;;11.10;86.50;;;;;;5006265;28;20034;-76
2020/12/23 04:07:45;;;;;;;4.22;2.58;;;11.10;86.50;;;;;;4989859;28;20048;-76
2020/12/23 04:10:11;;;;;;;3.90;2.67;;;11.10;86.50;;;;;;4989532;28;20030;-76
2020/12/23 04:12:37;;;;;;;3.17;2.35;;;11.10;86.50;;;;;;4991508;28;20366;-75
2020/12/23 04:15:08;;;;;;;4.93;2.67;;;11.10;86.50;;;;;;4989852;28;20033;-75
2020/12/23 04:17:35;;;;;;;7.35;2.78;;;11.10;86.50;;;;;;4991417;28;20030;-75
2020/12/23 04:20:03;;;;;;;5.93;2.60;;;11.10;86.50;;;;;;4990796;28;20034;-76
2020/12/23 04:22:29;;;;;;;9.50;3.08;;;11.10;86.50;;;;;;5005488;28;20039;-76
2020/12/23 04:24:57;;;;;;;3.45;2.35;;;11.10;86.50;;;;;;4991040;28;20030;-76
2020/12/23 04:27:23;;;;;;;6.78;2.47;;;11.10;86.50;;;;;;5005585;28;20038;-76
2020/12/23 04:29:50;;;;;;;3.28;2.20;;;11.10;86.50;;;;;;4990884;28;20038;-76
2020/12/23 04:32:16;;;;;;;5.68;2.45;;;11.10;86.50;;;;;;4990348;28;20629;-76
2020/12/23 04:34:42;;;;;;;1.90;1.70;;;11.10;86.50;;;;;;4990313;28;20026;-76
2020/12/23 04:37:08;;;;;;;3.47;2.20;;;11.20;86.70;;;;;;4990588;28;20032;-76
2020/12/23 04:39:34;;;;;;;2.38;2.03;;;11.10;86.50;;;;;;4990739;28;20031;-76
2020/12/23 04:42:00;;;;;;;5.78;2.30;;;11.20;86.70;;;;;;4990039;28;20037;-78
2020/12/23 04:44:26;;;;;;;3.53;2.10;;;11.20;86.70;;;;;;4990059;28;20026;-77
2020/12/23 04:46:53;;;;;;;2.33;2.00;;;11.20;86.70;;;;;;4990139;28;20106;-77
2020/12/23 04:49:22;;;;;;;3.63;2.15;;;11.20;86.70;;;;;;4989929;28;20473;-77
2020/12/23 04:51:55;;;;;;;3.50;2.40;;;11.20;86.70;;;;;;4989953;28;20137;-77
2020/12/23 04:54:22;;;;;;;4.93;2.45;;;11.10;86.50;;;;;;4989219;28;20537;-76
2020/12/23 04:56:49;;;;;;;4.13;2.13;;;11.20;86.70;;;;;;5005658;28;20030;-76
2020/12/23 04:59:15;;;;;;;4.72;2.10;;;11.20;86.60;;;;;;4990382;28;20125;-76
2020/12/23 05:01:42;;;;;;;3.33;1.95;;;11.20;86.60;;;;;;5004948;28;20045;-75
2020/12/23 05:04:08;;;;;;;4.25;2.13;;;11.20;86.60;;;;;;4990395;28;20382;-75
2020/12/23 05:06:37;;;;;;;3.58;2.08;;;11.20;86.60;;;;;;4988968;28;20084;-75
2020/12/23 05:09:05;;;;;;;2.83;2.30;;;11.20;86.60;;;;;;5004990;28;20040;-75
2020/12/23 05:11:34;;;;;;;3.28;2.05;;;11.20;86.60;;;;;;4990132;28;20469;-75
2020/12/23 05:14:04;;;;;;;2.65;1.90;;;11.20;86.60;;;;;;5004568;28;20050;-75
2020/12/23 05:16:32;;;;;;;3.83;2.00;;;11.20;86.60;;;;;;5005617;28;20046;-75
2020/12/23 05:19:00;;;;;;;4.22;2.53;;;11.20;86.50;;;;;;5008232;28;20488;-75
2020/12/23 05:21:27;;;;;;;5.35;2.35;;;11.20;86.50;;;;;;4994995;28;20066;-76
2020/12/23 05:23:54;;;;;;;4.50;2.42;;;11.20;86.50;;;;;;4994121;28;20419;-76
2020/12/23 05:26:21;;;;;;;3.75;2.35;;;11.20;86.50;;;;;;5004891;28;20125;-75
2020/12/23 05:28:48;;;;;;;4.72;2.10;;;11.30;86.70;;;;;;4990295;28;20031;-75
2020/12/23 05:31:16;;;;;;;2.45;2.03;;;11.20;86.50;;;;;;4989748;28;20324;-75
2020/12/23 05:33:44;;;;;;;2.28;1.73;;;11.20;86.50;;;;;;4990137;28;20061;-76
2020/12/23 05:36:13;;;;;;;3.58;2.10;;;11.30;86.70;;;;;;4989555;28;20038;-75
2020/12/23 05:38:40;;;;;;;3.40;2.25;;;11.30;86.70;;;;;;4990230;28;20030;-75
2020/12/23 05:41:07;;;;;;;6.72;2.47;;;11.20;86.50;;;;;;4989662;28;20046;-75
2020/12/23 05:43:34;;;;;;;2.20;2.00;;;11.20;86.50;;;;;;5000666;28;20583;-75
2020/12/23 05:46:04;;;;;;;3.00;1.67;;;11.30;86.70;;;;;;5000837;28;20156;-74
2020/12/23 05:48:31;;;;;;;3.88;2.33;;;11.30;86.70;;;;;;4993367;28;20185;-75
2020/12/23 05:50:58;;;;;;;2.65;1.90;;;11.30;86.70;;;;;;5001831;28;20525;-75
2020/12/23 05:53:27;;;;;;;3.30;2.00;;;11.30;86.70;;;;;;5017283;28;20022;-76
2020/12/23 05:55:54;;;;;;;3.63;2.20;;;11.30;86.70;;;;;;4999679;28;20090;-75
2020/12/23 05:58:23;;;;;;;2.72;2.08;;;11.30;86.60;;;;;;5006323;28;20456;-76
2020/12/23 06:00:50;;;;;;;1.88;1.60;;;11.30;86.60;;;;;;5003458;28;20042;-75
2020/12/23 06:03:31;;;;;;;3.15;2.20;;;11.30;86.60;;;;;;5000916;28;20061;-75
2020/12/23 06:05:59;;;;;;;4.25;2.00;;;11.30;86.60;;;;;;4989523;28;20548;-75
2020/12/23 06:08:35;;;;;;;2.88;2.00;;;11.30;86.60;;;;;;4997480;28;20033;-76
2020/12/23 06:11:28;;;;;;;2.85;2.42;;;11.30;86.60;;;;;;5005346;28;20038;-76
2020/12/23 06:14:06;;;;;;;2.40;1.55;;;11.30;86.60;;;;;;5015274;28;20484;-76
2020/12/23 06:16:44;;;;;;;4.38;1.70;;;11.30;86.50;;;;;;5002538;28;20492;-80
2020/12/23 06:19:36;;;;;;;2.00;1.80;;;11.30;86.50;;;;;;5001779;28;20030;-77
2020/12/23 06:22:04;;;;;;;3.97;2.22;;;11.40;86.70;;;;;;4997808;28;20233;-79
2020/12/23 06:24:30;;;;;;;3.22;1.95;;;11.30;86.50;;;;;;4990141;28;20134;-77
2020/12/23 06:26:59;;;;;;;3.30;1.83;;;11.40;86.70;;;;;;4992335;28;20125;-77
2020/12/23 06:29:31;;;;;;;3.13;2.10;;;11.40;86.70;;;;;;4997010;28;20052;-78
2020/12/23 06:32:17;;;;;;;3.20;1.90;;;11.30;86.60;;;;;;5020841;28;20081;-80
2020/12/23 06:34:43;;;;;;;3.15;1.98;;;11.40;86.80;;;;;;4999516;28;20438;-82
2020/12/23 06:37:19;;;;;;;2.47;1.88;;;11.40;86.70;;;;;;5006859;28;20037;-77
2020/12/23 06:39:46;;;;;;;3.72;1.83;;;11.40;86.70;;;;;;5024166;28;20033;-77
2020/12/23 06:42:12;;;;;;;4.10;2.28;;;11.40;86.70;;;;;;5009591;28;20397;-74
2020/12/23 06:44:54;;;;;;;2.88;2.20;;;11.40;86.70;;;;;;5009663;28;20021;-76
2020/12/23 06:47:21;;;;;;;2.35;2.03;;;11.40;86.70;;;;;;4999016;28;20034;-76
2020/12/23 06:49:51;;;;;;;2.95;2.00;;;11.40;86.70;;;;;;5007626;28;20116;-76
2020/12/23 06:52:22;;;;;;;3.58;2.13;;;11.40;86.70;;;;;;5006332;28;20596;-75
2020/12/23 06:54:54;;;;;;;2.92;1.60;;;11.50;86.90;;;;;;4990051;28;20406;-76
2020/12/23 06:57:38;;;;;;;2.08;1.50;;;11.50;86.90;;;;;;4988896;28;20166;-76
2020/12/23 07:00:05;;;;;;;3.25;2.10;;;11.50;86.90;;;;;;4989310;28;20066;-74
2020/12/23 07:02:44;;;;;;;2.42;1.90;;;11.50;86.90;;;;;;4988657;28;20030;-78
2020/12/23 07:05:31;;;;;;;1.88;1.48;;;11.50;86.90;;;;;;5003947;28;20038;-78
2020/12/23 07:08:05;;;;;;;2.58;2.03;;;11.50;86.90;;;;;;4998668;28;20118;-78
2020/12/23 07:10:44;;;;;;;3.78;2.08;;;11.50;86.90;;;;;;5007153;28;20044;-78
2020/12/23 07:13:19;;;;;;;4.10;1.67;;;11.50;86.90;;;;;;5005939;28;20420;-79
2020/12/23 07:15:53;;;;;;;4.95;2.45;;;11.50;87.40;;;;;;4988105;28;20035;-79
2020/12/23 07:18:28;;;;;;;2.63;1.58;;;11.60;87.10;;;;;;4998014;28;20153;-78
2020/12/23 07:21:06;;;;;;;4.13;2.05;;;11.60;87.00;;;;;;5007045;28;20038;-79
2020/12/23 07:23:34;;;;;;;3.63;2.03;;;11.60;87.00;;;;;;5022158;28;20525;-79
2020/12/23 07:26:04;;;;;;;5.75;2.22;;;11.60;87.00;;;;;;5007548;28;20037;-77
2020/12/23 07:28:40;;;;;;;2.90;2.00;;;11.60;87.00;;;;;;5008684;28;20040;-77
2020/12/23 07:31:07;;;;;;;2.92;2.10;;;11.60;87.00;;;;;;5008060;28;20125;-79
2020/12/23 07:33:37;;;;;;;2.42;2.00;;;11.60;86.90;;;;;;5006404;28;20041;-77
2020/12/23 07:36:03;;;;;;;2.35;1.85;;;11.60;86.90;;;;;;5004134;28;20105;-76
2020/12/23 07:38:36;;;;;;;3.50;2.20;;;11.60;86.90;;;;;;4998807;28;20161;-77
2020/12/23 07:41:02;;;;;;;1.63;1.52;;;11.60;86.90;;;;;;4990831;28;20111;-76
2020/12/23 07:43:28;;;;;;;2.42;1.80;;;11.60;86.90;;;;;;5008118;28;20037;-77
2020/12/23 07:45:55;;;;;;;3.08;2.08;;;11.60;86.90;;;;;;5006221;28;20048;-77
2020/12/23 07:48:23;;;;;;;2.65;1.67;;;11.70;87.10;;;;;;5005396;28;20068;-76
2020/12/23 07:50:54;;;;;;;7.15;2.22;;;11.60;86.90;;;;;;5007675;28;20033;-76
2020/12/23 07:53:22;;;;;;;5.25;2.38;;;11.60;86.90;;;;;;5006645;28;20057;-77
2020/12/23 07:56:01;;;;;;;3.38;2.38;;;11.60;86.90;;;;;;5021561;28;20556;-76
2020/12/23 07:58:28;;;;;;;3.53;1.98;;;11.70;87.10;;;;;;5005925;28;20478;-75
2020/12/23 08:00:55;;;;;;;3.15;2.38;;;11.70;87.10;;;;;;5006355;28;20524;-75
2020/12/23 08:03:28;;;;;;;2.40;1.98;;;11.70;87.10;;;;;;5006681;28;20040;-76
2020/12/23 08:06:06;;;;;;;2.10;1.70;;;11.70;87.10;;;;;;5007885;28;20034;-76
2020/12/23 08:08:33;;;;;;;3.30;2.10;;;11.70;87.10;;;;;;5004192;28;20863;-77
2020/12/23 08:11:06;;;;;;;6.95;2.83;;;11.70;87.10;;;;;;4988606;28;20273;-77
2020/12/23 08:13:32;;;;;;;;;;;11.70;87.10;;;;;;5007786;28;20161;-77
2020/12/23 08:16:09;;;;;;;4.72;2.40;;;11.70;87.10;;;;;;5007819;28;19937;-77
2020/12/23 08:18:37;;;;;;;2.97;2.33;;;11.80;87.20;;;;;;5007285;28;20478;-77
2020/12/23 08:21:10;;;;;;;2.63;2.33;;;11.80;87.10;;;;;;5006313;28;20049;-78
2020/12/23 08:23:37;;;;;;;2.65;2.10;;;11.80;87.20;;;;;;5022373;28;20032;-77
2020/12/23 08:26:04;;;;;;;2.78;2.45;;;11.80;87.10;;;;;;5007169;28;20145;-78
2020/12/23 08:28:33;;;;;;;4.68;2.47;;;11.80;87.10;;;;;;5006256;28;20203;-76
2020/12/23 08:31:00;;;;;;;2.40;2.10;;;11.80;87.20;;;;;;5006967;28;20061;-75
2020/12/23 08:33:28;;;;;;;2.00;1.67;;;11.80;87.10;;;;;;5007138;28;20034;-75
2020/12/23 08:36:02;;;;;;;3.25;2.05;;;11.80;87.10;;;;;;5006926;28;20030;-74
2020/12/23 08:38:29;;;;;;;2.28;1.70;;;11.80;87.10;;;;;;5005134;28;20041;-75
2020/12/23 08:40:59;;;;;;;2.08;1.70;;;11.80;87.10;;;;;;5006164;28;20041;-75
2020/12/23 08:43:31;;;;;;;3.83;1.85;;;11.80;87.10;;;;;;4988082;28;20029;-75
2020/12/23 08:45:59;;;;;;;2.35;2.08;;;11.80;87.10;;;;;;5005137;28;20033;-75
2020/12/23 08:48:29;;;;;;;2.65;1.80;;;11.80;87.10;;;;;;4987315;28;20088;-76
2020/12/23 08:51:00;;;;;;;2.72;1.80;;;11.80;87.10;;;;;;4987400;28;20471;-76
2020/12/23 08:53:38;;;;;;;2.47;2.00;;;11.80;87.10;;;;;;5005198;28;20034;-76
2020/12/23 08:56:27;;;;;;;2.88;2.05;;;11.90;87.30;;;;;;4987535;28;20033;-75
2020/12/23 08:59:04;;;;;;;3.22;2.20;;;11.90;87.30;;;;;;5004826;28;20062;-75
2020/12/23 09:01:32;;;;;;;3.47;1.90;;;11.90;87.30;;;;;;4988599;28;20045;-76
2020/12/23 09:04:04;;;;;;;4.95;2.45;;;11.90;87.30;;;;;;4988877;28;20179;-77
2020/12/23 09:06:31;;;;;;;2.53;1.83;;;11.90;87.40;;;;;;4988754;28;20026;-76
2020/12/23 09:09:06;;;;;;;2.80;2.15;;;12.00;87.60;;;;;;5004518;28;20045;-77
2020/12/23 09:11:49;;;;;;;2.85;2.25;;;12.00;87.60;;;;;;4988608;28;20033;-74
2020/12/23 09:14:41;;;;;;;2.20;2.00;;;12.20;88.00;;;;;;5004811;28;20128;-74
2020/12/23 09:17:08;;;;;;;4.00;1.98;;;12.20;87.80;;;;;;5004983;28;20053;-74
2020/12/23 09:19:44;;;;;;;1.80;1.67;;;12.30;87.80;;;;;;5006087;28;20434;-74
2020/12/23 09:22:11;;;;;;;2.72;1.80;;;12.40;87.90;;;;;;5006485;28;20038;-74
2020/12/23 09:24:37;;;;;;;2.70;2.28;;;12.40;88.00;;;;;;5004726;28;20022;-74
2020/12/23 09:27:24;;;;;;;2.40;1.90;;;12.50;87.80;;;;;;5004633;28;20456;-74
2020/12/23 09:29:51;;;;;;;3.75;1.88;;;12.50;87.80;;;;;;5004699;28;20128;-73
2020/12/23 09:32:17;;;;;;;1.67;1.58;;;12.50;87.70;;;;;;5004807;28;20045;-74
2020/12/23 09:34:44;;;;;;;2.55;1.70;;;12.60;87.80;;;;;;5004615;28;20044;-74
2020/12/23 09:37:10;;;;;;;2.20;1.90;;;12.60;87.80;;;;;;5004734;28;20392;-74
2020/12/23 09:39:37;;;;;;;1.77;1.67;;;12.60;88.20;;;;;;4988248;28;20038;-74
2020/12/23 09:42:08;;;;;;;1.48;1.38;;;12.60;87.70;;;;;;5004901;28;20168;-73
2020/12/23 09:44:35;;;;;;;3.03;2.05;;;12.60;87.70;;;;;;5004920;28;20124;-74
2020/12/23 09:47:01;;;;;;;2.78;2.05;;;12.60;87.70;;;;;;5004953;28;20041;-74
2020/12/23 09:49:27;;;;;;;2.00;1.70;;;12.60;87.60;;;;;;5004939;28;20512;-74
2020/12/23 09:51:53;;;;;;;2.97;1.85;;;12.60;87.60;;;;;;5004395;28;20106;-75
2020/12/23 09:54:20;;;;;;;3.30;1.65;;;12.60;87.70;;;;;;5003968;28;20042;-74
2020/12/23 09:56:47;;;;;;;2.25;1.73;;;12.60;87.70;;;;;;5006252;28;20188;-74
2020/12/23 09:59:13;;;;;;;2.58;1.95;;;12.60;87.70;;;;;;5004156;28;20040;-74
2020/12/23 10:01:39;;;;;;;2.22;1.77;;;12.60;87.70;;;;;;5005936;28;20046;-75
2020/12/23 10:04:05;;;;;;;2.47;1.73;;;12.70;87.90;;;;;;5004260;28;20030;-74
2020/12/23 10:06:31;;;;;;;3.08;2.13;;;12.60;87.70;;;;;;4987919;28;20038;-75
2020/12/23 10:08:57;;;;;;;3.03;1.98;;;12.70;87.90;;;;;;5004209;28;20456;-74
2020/12/23 10:11:23;;;;;;;3.08;1.90;;;12.70;87.90;;;;;;5004852;28;20078;-76
2020/12/23 10:13:49;;;;;;;4.25;2.03;;;12.80;88.00;;;;;;5004614;28;20044;-74
2020/12/23 10:16:15;;;;;;;3.30;2.15;;;12.80;88.00;;;;;;5004646;28;20109;-74
2020/12/23 10:18:41;;;;;;;2.83;2.20;;;12.80;88.00;;;;;;5004165;28;20033;-74
2020/12/23 10:21:08;;;;;;;4.63;2.45;;;12.90;88.30;;;;;;5004554;28;20061;-73
2020/12/23 10:23:34;;;;;;;4.22;2.10;;;12.90;88.30;;;;;;4988178;28;20387;-74
2020/12/23 10:26:00;;;;;;;9.20;1.98;;;13.00;88.40;;;;;;5004416;28;20042;-73
2020/12/23 10:28:26;;;;;;;4.35;2.42;;;13.00;88.40;;;;;;5004245;28;20026;-75
2020/12/23 10:30:52;;;;;;;7.43;2.15;;;13.00;88.30;;;;;;5004484;28;20033;-74
2020/12/23 10:33:17;;;;;;;2.08;1.70;;;13.00;88.30;;;;;;5008015;28;20018;-74
2020/12/23 10:35:43;;;;;;;5.47;2.00;;;13.10;88.40;;;;;;5007685;28;20041;-73
2020/12/23 10:38:09;;;;;;;4.75;2.40;;;13.10;88.40;;;;;;5008415;28;20030;-74
2020/12/23 10:40:35;;;;;;;3.55;1.88;;;13.10;88.40;;;;;;5008916;28;20039;-74
2020/12/23 10:43:04;;;;;;;2.78;1.73;;;13.10;88.30;;;;;;5007370;28;20037;-73
2020/12/23 10:45:30;;;;;;;3.92;2.22;;;13.10;88.30;;;;;;4991392;28;20029;-73
2020/12/23 10:47:56;;;;;;;5.38;2.15;;;13.10;88.30;;;;;;5007692;28;20427;-74
2020/12/23 10:50:22;;;;;;;5.07;2.20;;;13.10;88.80;;;;;;4991363;28;20026;-73
2020/12/23 10:52:48;;;;;;;4.40;2.05;;;13.00;88.10;;;;;;5007488;28;20052;-74
2020/12/23 10:55:14;;;;;;;6.18;2.08;;;13.00;88.10;;;;;;5008573;28;20045;-73
2020/12/23 10:57:40;;;;;;;4.07;2.00;;;13.10;88.30;;;;;;5008529;28;20389;-75
2020/12/23 11:00:06;;;;;;;5.45;2.45;;;13.10;88.30;;;;;;4990774;28;20456;-74
2020/12/23 11:02:33;;;;;;;4.35;1.77;;;13.00;88.10;;;;;;5007146;28;20030;-74
2020/12/23 11:04:59;;;;;;;3.97;2.17;;;13.00;88.10;;;;;;5007059;28;20121;-74
2020/12/23 11:07:25;;;;;;;5.32;1.95;;;13.00;88.10;;;;;;5008089;28;20476;-74
2020/12/23 11:09:51;;;;;;;5.22;2.55;;;13.00;88.10;;;;;;5008287;28;20053;-75
2020/12/23 11:12:17;;;;;;;5.00;1.70;;;13.00;88.10;;;;;;5006764;28;20041;-74
2020/12/23 11:14:44;;;;;;;5.97;2.35;;;13.00;88.10;;;;;;5008794;28;20334;-74
2020/12/23 11:17:10;;;;;;;4.80;2.25;;;13.00;88.00;;;;;;5008143;28;20026;-74
2020/12/23 11:19:37;;;;;;;6.28;2.38;;;13.10;88.20;;;;;;5006665;28;20036;-74
2020/12/23 11:22:03;;;;;;;4.97;2.40;;;13.00;88.00;;;;;;5006793;28;20041;-73
2020/12/23 11:24:29;;;;;;;4.90;2.28;;;13.00;87.90;;;;;;5006105;28;20042;-74
2020/12/23 11:26:54;;;;;;;5.50;2.55;;;13.00;87.90;;;;;;4990277;28;20036;-74
2020/12/23 11:29:20;;;;;;;5.90;2.25;;;13.10;88.00;;;;;;5006287;28;20176;-73
2020/12/23 11:31:50;;;;;;;14.32;3.03;;;13.10;88.00;;;;;;4989739;28;20453;-73
2020/12/23 11:34:16;;;;;;;5.70;2.53;;;13.00;87.90;;;;;;4990234;28;20616;-73
2020/12/23 11:36:42;;;;;;;8.82;2.42;;;13.00;87.80;;;;;;5006564;28;20370;-72
2020/12/23 11:39:08;;;;;;;6.90;2.30;;;13.00;87.80;;;;;;5006347;28;20029;-72
2020/12/23 11:41:35;;;;;;;6.28;2.25;;;13.00;87.80;;;;;;5008146;28;20042;-72
2020/12/23 11:44:01;;;;;;;4.20;1.90;;;13.00;87.80;;;;;;4990389;28;20030;-73
2020/12/23 11:46:29;;;;;;;4.65;2.28;;;13.00;87.80;;;;;;5007568;28;20489;-74
2020/12/23 11:48:56;;;;;;;5.25;2.33;;;13.00;87.80;;;;;;4989814;28;20104;-73
2020/12/23 11:51:22;;;;;;;2.80;1.67;;;13.00;87.80;;;;;;5007471;28;20030;-73
2020/12/23 11:53:47;;;;;;;4.43;2.33;;;13.00;87.80;;;;;;5006652;28;20038;-73
2020/12/23 11:56:13;;;;;;;5.53;2.38;;;13.00;87.80;;;;;;5007423;28;20030;-75
2020/12/23 11:58:39;;;;;;;5.72;2.15;;;13.00;87.80;;;;;;4989964;28;20185;-75
2020/12/23 12:01:05;;;;;;;6.53;2.53;;;13.00;87.80;;;;;;5007742;28;20033;-74
2020/12/23 12:03:31;;;;;;;4.97;1.73;;;13.00;87.80;;;;;;5005971;28;20541;-74
2020/12/23 12:05:57;;;;;;;5.78;2.17;;;13.00;87.80;;;;;;5005941;28;20026;-74
2020/12/23 12:08:24;;;;;;;2.22;1.60;;;13.10;87.90;;;;;;5006546;28;20030;-73
2020/12/23 12:10:50;;;;;;;4.28;1.92;;;13.00;87.70;;;;;;5006082;28;20052;-76
2020/12/23 12:13:15;;;;;;;5.25;2.15;;;13.10;87.90;;;;;;5007639;28;20373;-73
2020/12/23 12:15:41;;;;;;;6.05;1.92;;;13.10;87.90;;;;;;4989526;28;20029;-72
2020/12/23 12:18:07;;;;;;;5.78;2.20;;;13.10;87.80;;;;;;5006992;28;20037;-73
2020/12/23 12:20:33;;;;;;;6.63;2.47;;;13.10;87.80;;;;;;5006717;28;20030;-72
2020/12/23 12:22:59;;;;;;;7.63;2.25;;;13.10;87.80;;;;;;5007645;28;20577;-72
2020/12/23 12:25:26;;;;;;;4.63;2.00;;;13.10;87.80;;;;;;5007388;28;20034;-76
2020/12/23 12:27:52;;;;;;;8.55;2.08;;;13.10;87.70;;;;;;5005615;28;20038;-73
2020/12/23 12:30:18;;;;;;;4.95;2.35;;;13.10;87.70;;;;;;5006746;28;20036;-75
2020/12/23 12:32:45;;;;;;;4.00;1.80;;;13.10;87.60;;;;;;5005921;28;20424;-74
2020/12/23 12:35:11;;;;;;;6.25;2.20;;;13.10;87.60;;;;;;5006310;28;20312;-74
2020/12/23 12:37:37;;;;;;;8.55;4.80;;;13.10;87.60;;;;;;5005188;28;20088;-73
2020/12/23 12:40:03;;;;;;;7.85;3.75;;;13.10;87.60;;;;;;5005681;28;20517;-73
2020/12/23 12:42:30;;;;;;;5.45;3.38;;;13.20;87.90;;;;;;5007023;28;20030;-74
2020/12/23 12:44:56;;;;;;;8.05;4.13;;;13.10;87.80;;;;;;5006700;28;20038;-74
2020/12/23 12:47:22;;;;;;;5.85;3.47;;;13.20;88.00;;;;;;5004836;28;20042;-75
2020/12/23 12:49:47;;;;;;;8.45;3.53;;;13.20;88.00;;;;;;5004835;28;20137;-73
2020/12/23 12:52:13;;;;;;;7.25;3.35;;;13.20;88.00;;;;;;4988637;28;20036;-75